Time;durP1;ratioP1;P1;durP2;ratioP2;P2;SDS_P1;SDS_P2;PMS_P1;PMS_P2;Temp;Humidity;BMP_temperature;BMP_pressure;BME280_temperature;BME280_humidity;BME280_pressure;Samples;Min_cycle;Max_cycle;Signal;HPM_P1;HPM_P2
2021/07/04 00:00:27;;;;;;;5.65;3.15;;;;;;;16.99;75.92;99915.53;5021150;28;20495;-45
2021/07/04 00:02:55;;;;;;;7.25;3.97;;;;;;;16.99;75.57;99921.94;4982116;28;20108;-40
2021/07/04 00:05:25;;;;;;;8.45;3.90;;;;;;;16.96;75.60;99916.34;5015693;28;20054;-42
2021/07/04 00:07:52;;;;;;;11.57;4.28;;;;;;;16.95;75.67;99921.16;5012645;28;20049;-41
2021/07/04 00:10:25;;;;;;;12.85;4.53;;;;;;;16.90;76.06;99915.97;5012370;28;20054;-41
2021/07/04 00:12:57;;;;;;;11.18;5.10;;;;;;;16.91;76.15;99914.00;5015105;28;20052;-40
2021/07/04 00:15:26;;;;;;;10.02;4.72;;;;;;;16.91;76.22;99925.97;5013086;28;20062;-40
2021/07/04 00:17:53;;;;;;;13.35;4.18;;;;;;;16.92;76.20;99915.56;5016030;28;20148;-41
2021/07/04 00:20:21;;;;;;;9.68;4.65;;;;;;;16.90;76.34;99913.19;5022594;28;20092;-40
2021/07/04 00:22:54;;;;;;;9.30;4.10;;;;;;;16.90;76.46;99915.19;5018756;28;20053;-40
2021/07/04 00:25:28;;;;;;;8.57;4.78;;;;;;;16.90;76.35;99917.97;5019268;28;20145;-42
2021/07/04 00:27:56;;;;;;;12.07;5.00;;;;;;;16.87;76.49;99907.59;5009915;28;20132;-43
2021/07/04 00:30:24;;;;;;;13.43;4.05;;;;;;;16.86;76.50;99917.22;4996700;28;20071;-42
2021/07/04 00:32:52;;;;;;;10.05;4.18;;;;;;;16.86;76.31;99920.00;5020511;28;20144;-41
2021/07/04 00:35:23;;;;;;;9.77;4.25;;;;;;;16.86;76.45;99923.59;5014916;28;20054;-44
2021/07/04 00:37:52;;;;;;;8.63;4.80;;;;;;;16.87;76.58;99918.78;5016310;28;20108;-40
2021/07/04 00:40:20;;;;;;;11.10;4.22;;;;;;;16.87;76.63;99910.41;5015429;28;20076;-43
2021/07/04 00:42:47;;;;;;;4.45;3.30;;;;;;;16.88;76.54;99914.81;5015349;28;20046;-41
2021/07/04 00:45:17;;;;;;;8.90;4.25;;;;;;;16.90;76.64;99906.78;5013731;28;20068;-45
2021/07/04 00:47:44;;;;;;;9.57;4.05;;;;;;;16.92;76.63;99898.78;4996356;28;20076;-40
2021/07/04 00:50:12;;;;;;;13.88;5.78;;;;;;;16.91;76.87;99908.41;5023195;28;20045;-41
2021/07/04 00:52:41;;;;;;;9.43;4.13;;;;;;;16.87;76.81;99902.00;5020225;28;20100;-45
2021/07/04 00:55:09;;;;;;;10.10;4.00;;;;;;;16.87;76.94;99907.59;4994719;28;20443;-44
2021/07/04 00:57:36;;;;;;;9.35;4.20;;;;;;;16.86;77.24;99906.03;5011794;28;20046;-47
2021/07/04 01:00:09;;;;;;;8.07;3.65;;;;;;;16.87;77.38;99910.41;5003704;28;20125;-42
2021/07/04 01:02:42;;;;;;;8.18;4.10;;;;;;;16.90;77.23;99904.78;5010743;28;20057;-40
2021/07/04 01:05:13;;;;;;;5.32;3.35;;;;;;;16.88;77.23;99907.22;5012131;28;20144;-43
2021/07/04 01:07:43;;;;;;;7.38;3.47;;;;;;;16.90;77.20;99904.00;5021062;28;20062;-44
2021/07/04 01:10:13;;;;;;;8.10;4.00;;;;;;;16.89;77.35;99897.59;5025425;28;20054;-41
2021/07/04 01:12:43;;;;;;;10.13;3.78;;;;;;;16.93;77.17;99900.38;5010105;28;20061;-42
2021/07/04 01:15:11;;;;;;;6.80;3.45;;;;;;;16.93;76.99;99900.38;5020893;28;20065;-45
2021/07/04 01:17:38;;;;;;;5.50;3.33;;;;;;;16.93;77.00;99895.59;5016039;28;20149;-44
2021/07/04 01:20:08;;;;;;;7.43;3.33;;;;;;;16.90;77.15;99901.19;5019856;28;20081;-46
2021/07/04 01:22:39;;;;;;;9.32;3.90;;;;;;;16.88;77.24;99892.44;5013148;28;20404;-42
2021/07/04 01:25:08;;;;;;;;;;;;;;;16.78;77.42;99887.69;5003357;28;20050;-44
2021/07/04 01:27:35;;;;;;;6.63;3.95;;;;;;;16.79;77.24;99892.88;5021407;28;20016;-41
2021/07/04 01:30:06;;;;;;;7.85;3.80;;;;;;;16.84;77.36;99892.44;5015594;28;20081;-43
2021/07/04 01:32:35;;;;;;;11.05;3.25;;;;;;;16.89;77.02;99891.25;5013502;28;20065;-46
2021/07/04 01:35:03;;;;;;;6.82;3.22;;;;;;;16.91;76.93;99886.03;5024977;28;20041;-41
2021/07/04 01:37:30;;;;;;;8.80;4.07;;;;;;;16.93;77.09;99894.78;5011431;28;20054;-42
2021/07/04 01:39:57;;;;;;;9.43;4.55;;;;;;;16.97;76.97;99887.19;5020002;28;20529;-42
2021/07/04 01:42:24;;;;;;;10.05;3.10;;;;;;;16.97;77.08;99892.78;5023007;28;20511;-42
2021/07/04 01:44:51;;;;;;;9.85;4.65;;;;;;;16.97;76.95;99876.78;5011497;28;20049;-42
2021/07/04 01:47:18;;;;;;;7.70;4.00;;;;;;;16.97;77.10;99879.59;5012180;28;20057;-46
2021/07/04 01:49:48;;;;;;;6.25;3.45;;;;;;;16.94;77.20;99876.81;5017941;28;20049;-43
2021/07/04 01:52:14;;;;;;;5.70;3.35;;;;;;;16.91;77.41;99872.06;5011465;28;20046;-43
2021/07/04 01:54:42;;;;;;;5.30;3.58;;;;;;;16.94;77.19;99874.81;5007931;28;20062;-44
2021/07/04 01:57:11;;;;;;;6.45;2.80;;;;;;;16.92;77.32;99877.22;5006189;28;20152;-44
2021/07/04 01:59:43;;;;;;;6.05;2.95;;;;;;;16.96;77.07;99871.63;5022083;28;20154;-46
2021/07/04 02:02:13;;;;;;;7.53;3.25;;;;;;;16.97;76.99;99873.22;5020497;28;20122;-41
2021/07/04 02:04:41;;;;;;;6.10;2.80;;;;;;;16.94;77.05;99872.00;5018590;28;20100;-45
2021/07/04 02:07:16;;;;;;;5.82;3.47;;;;;;;16.95;76.98;99876.41;5015425;28;20077;-45
2021/07/04 02:09:50;;;;;;;7.45;3.38;;;;;;;16.95;76.90;99878.41;5016967;28;20100;-48
2021/07/04 02:12:18;;;;;;;4.40;4.00;;;;;;;16.93;76.80;99872.44;5021426;28;20061;-45
2021/07/04 02:14:45;;;;;;;5.82;3.13;;;;;;;16.87;76.96;99863.66;5016375;28;20041;-46
2021/07/04 02:17:12;;;;;;;2.58;1.98;;;;;;;16.80;76.95;99866.53;5015566;28;20140;-42
2021/07/04 02:19:41;;;;;;;2.50;1.88;;;;;;;16.76;77.05;99864.97;5021637;28;20380;-47
2021/07/04 02:22:10;;;;;;;1.58;1.30;;;;;;;16.71;77.00;99865.38;5015122;28;20045;-42
2021/07/04 02:24:39;;;;;;;3.08;2.05;;;;;;;16.66;76.95;99863.00;5009817;28;20062;-42
2021/07/04 02:27:06;;;;;;;2.85;1.63;;;;;;;16.64;76.74;99859.81;5000188;28;20125;-44
2021/07/04 02:29:33;;;;;;;1.77;1.65;;;;;;;16.62;76.61;99856.66;5022101;28;20064;-45
2021/07/04 02:32:00;;;;;;;3.72;1.63;;;;;;;16.60;76.59;99859.81;5017166;28;20132;-46
2021/07/04 02:34:29;;;;;;;2.80;2.15;;;;;;;16.57;76.61;99854.28;5014644;28;20403;-44
2021/07/04 02:36:56;;;;;;;3.88;2.17;;;;;;;16.60;76.45;99859.06;5014608;28;20579;-41
2021/07/04 02:39:23;;;;;;;4.38;2.25;;;;;;;16.59;76.29;99849.06;5017265;28;20101;-42
2021/07/04 02:41:50;;;;;;;6.30;2.53;;;;;;;16.57;76.29;99854.28;5015505;28;20133;-47
2021/07/04 02:44:17;;;;;;;3.53;2.20;;;;;;;16.52;76.32;99846.28;5012424;28;20144;-44
2021/07/04 02:46:49;;;;;;;4.40;2.35;;;;;;;16.50;76.26;99854.25;5007837;28;20088;-44
2021/07/04 02:49:16;;;;;;;2.80;2.08;;;;;;;16.48;76.26;99842.69;5009679;28;20104;-46
2021/07/04 02:51:42;;;;;;;3.97;2.40;;;;;;;16.45;76.22;99845.13;5014874;28;20180;-42
2021/07/04 02:54:09;;;;;;;3.15;2.42;;;;;;;16.39;76.08;99846.72;5011875;28;20149;-41
2021/07/04 02:56:48;;;;;;;5.95;2.65;;;;;;;16.35;76.14;99837.59;5005738;28;20045;-41
2021/07/04 02:59:21;;;;;;;4.10;2.67;;;;;;;16.33;76.00;99842.78;5014435;28;20165;-43
2021/07/04 03:01:49;;;;;;;5.70;2.95;;;;;;;16.30;76.08;99840.81;5013584;28;20046;-41
2021/07/04 03:04:18;;;;;;;5.95;2.38;;;;;;;16.24;76.10;99842.41;5015810;28;20405;-41
2021/07/04 03:06:47;;;;;;;8.85;3.85;;;;;;;16.21;76.18;99840.44;5016825;28;20588;-44
2021/07/04 03:09:17;;;;;;;5.88;2.53;;;;;;;16.17;76.24;99836.88;5014221;28;20404;-42
2021/07/04 03:11:44;;;;;;;5.32;3.05;;;;;;;16.15;75.98;99830.88;5002338;28;20078;-41
2021/07/04 03:14:12;;;;;;;6.53;3.03;;;;;;;16.12;76.20;99836.50;5013459;28;20054;-41
2021/07/04 03:16:38;;;;;;;6.13;2.88;;;;;;;16.10;76.25;99828.50;5012368;28;20508;-41
2021/07/04 03:19:05;;;;;;;4.95;3.05;;;;;;;16.07;76.27;99828.53;5017817;28;20097;-43
2021/07/04 03:21:32;;;;;;;8.93;3.63;;;;;;;16.05;76.48;99830.91;5018088;28;20385;-41
2021/07/04 03:24:00;;;;;;;6.45;3.13;;;;;;;15.99;76.58;99830.53;5014083;28;20439;-41
2021/07/04 03:26:27;;;;;;;5.07;3.28;;;;;;;15.94;76.54;99822.56;5008499;28;20081;-43
2021/07/04 03:28:54;;;;;;;5.82;3.17;;;;;;;15.92;76.84;99819.38;5027089;28;20179;-43
2021/07/04 03:31:23;;;;;;;7.65;4.47;;;;;;;15.93;76.84;99829.38;5013467;28;20145;-41
2021/07/04 03:33:50;;;;;;;9.60;3.83;;;;;;;15.94;76.98;99830.16;5013888;28;20499;-42
2021/07/04 03:36:21;;;;;;;13.82;5.15;;;;;;;15.92;77.13;99826.97;5032488;28;20057;-41
2021/07/04 03:38:47;;;;;;;8.18;4.13;;;;;;;15.95;77.52;99831.75;5014735;28;20128;-41
2021/07/04 03:41:14;;;;;;;13.68;4.47;;;;;;;15.96;77.64;99825.78;5013189;28;20162;-41
2021/07/04 03:43:41;;;;;;;18.90;6.93;;;;;;;15.95;77.90;99828.94;5015433;28;20109;-41
2021/07/04 03:46:07;;;;;;;12.73;6.68;;;;;;;15.95;77.89;99835.34;5013449;28;20073;-41
2021/07/04 03:48:34;;;;;;;18.50;6.28;;;;;;;15.96;78.26;99828.56;5018208;28;20085;-45
2021/07/04 03:51:02;;;;;;;15.93;5.78;;;;;;;15.99;78.15;99827.72;5027128;28;20134;-44
2021/07/04 03:53:29;;;;;;;19.13;6.05;;;;;;;15.98;78.49;99833.72;5012938;28;20789;-41
2021/07/04 03:55:57;;;;;;;18.70;6.32;;;;;;;15.97;78.70;99835.72;5012868;28;20062;-41
2021/07/04 03:58:24;;;;;;;18.23;6.82;;;;;;;15.97;78.83;99834.91;5017205;28;20148;-41
2021/07/04 04:00:51;;;;;;;17.88;6.85;;;;;;;15.99;78.85;99830.53;5015615;28;20056;-43
2021/07/04 04:03:19;;;;;;;18.35;7.10;;;;;;;16.01;78.81;99830.13;5006609;28;20054;-42
2021/07/04 04:05:46;;;;;;;14.63;6.38;;;;;;;16.00;78.99;99826.53;5008692;28;20484;-41
2021/07/04 04:08:13;;;;;;;15.52;7.20;;;;;;;16.02;79.02;99815.00;5020089;28;20073;-41
2021/07/04 04:10:40;;;;;;;19.58;7.18;;;;;;;16.04;79.04;99824.56;5017664;28;20487;-42
2021/07/04 04:13:07;;;;;;;12.00;5.72;;;;;;;16.10;79.01;99825.69;5019319;28;20060;-41
2021/07/04 04:15:34;;;;;;;16.90;7.47;;;;;;;16.11;79.04;99832.88;5002148;28;20140;-42
2021/07/04 04:18:00;;;;;;;18.75;7.15;;;;;;;16.13;79.21;99830.47;5012037;28;20042;-43
2021/07/04 04:20:27;;;;;;;14.23;6.88;;;;;;;16.14;79.37;99834.88;5019570;28;20109;-41
2021/07/04 04:22:54;;;;;;;18.92;8.35;;;;;;;16.17;79.25;99836.06;5018953;28;20084;-41
2021/07/04 04:25:22;;;;;;;18.83;7.32;;;;;;;16.14;79.49;99834.88;5026117;28;20046;-41
2021/07/04 04:27:49;;;;;;;23.02;7.05;;;;;;;16.12;79.53;99834.50;5012452;28;20149;-43
2021/07/04 04:30:16;;;;;;;22.02;7.28;;;;;;;16.12;79.63;99828.91;5014747;28;20591;-46
2021/07/04 04:32:43;;;;;;;23.20;8.10;;;;;;;16.15;79.58;99833.66;5021245;28;20144;-43
2021/07/04 04:35:13;;;;;;;15.93;6.95;;;;;;;16.20;79.51;99838.81;4995671;28;20042;-41
2021/07/04 04:37:40;;;;;;;14.10;6.55;;;;;;;16.20;79.61;99835.25;5023349;28;20145;-39
2021/07/04 04:40:11;;;;;;;17.80;7.25;;;;;;;16.23;79.57;99834.47;5017235;28;20504;-41
2021/07/04 04:42:38;;;;;;;17.42;6.18;;;;;;;16.25;79.56;99823.66;5012440;28;20077;-40
2021/07/04 04:45:08;;;;;;;15.52;6.10;;;;;;;16.26;79.59;99828.84;5012095;28;20055;-41
2021/07/04 04:47:36;;;;;;;12.90;5.80;;;;;;;16.28;79.58;99826.41;5000510;28;20108;-41
2021/07/04 04:50:05;;;;;;;14.88;6.22;;;;;;;16.31;79.54;99827.59;5013361;28;20054;-42
2021/07/04 04:52:32;;;;;;;11.93;5.85;;;;;;;16.32;79.57;99838.38;5015600;28;20137;-43
2021/07/04 04:54:59;;;;;;;15.15;5.30;;;;;;;16.35;79.55;99834.00;5012210;28;20495;-43
2021/07/04 04:57:27;;;;;;;11.77;6.72;;;;;;;16.37;79.53;99837.16;5011415;28;20058;-41
2021/07/04 04:59:54;;;;;;;14.55;5.55;;;;;;;16.38;79.42;99835.97;5021975;28;20049;-40
2021/07/04 05:02:22;;;;;;;13.05;5.55;;;;;;;16.35;79.59;99837.59;5015373;28;20054;-40
2021/07/04 05:04:48;;;;;;;9.52;4.25;;;;;;;16.30;79.60;99840.81;5016315;28;20057;-41
2021/07/04 05:07:16;;;;;;;9.55;4.90;;;;;;;16.28;79.49;99829.22;5014081;28;20140;-42
2021/07/04 05:09:42;;;;;;;10.18;3.50;;;;;;;16.31;79.43;99836.78;4999236;28;20538;-40
2021/07/04 05:12:09;;;;;;;8.07;3.75;;;;;;;16.34;79.39;99838.78;5011390;28;20573;-42
2021/07/04 05:14:36;;;;;;;7.93;3.85;;;;;;;16.39;79.25;99829.97;5011986;28;20050;-40
2021/07/04 05:17:03;;;;;;;12.48;5.03;;;;;;;16.40;79.31;99839.94;5006728;28;20054;-41
2021/07/04 05:19:30;;;;;;;15.13;4.82;;;;;;;16.38;79.52;99836.78;5009877;28;20065;-41
2021/07/04 05:22:00;;;;;;;12.73;6.68;;;;;;;16.36;79.79;99839.16;5019685;28;20100;-41
2021/07/04 05:24:26;;;;;;;19.83;6.53;;;;;;;16.35;79.93;99839.56;5022604;28;20479;-40
2021/07/04 05:26:53;;;;;;;10.95;5.88;;;;;;;16.33;80.07;99840.00;5026895;28;20451;-41
2021/07/04 05:29:20;;;;;;;16.40;6.45;;;;;;;16.32;80.15;99832.00;5027060;28;20495;-41
2021/07/04 05:31:47;;;;;;;12.55;5.47;;;;;;;16.34;80.23;99840.75;5015829;28;20077;-40
2021/07/04 05:34:14;;;;;;;15.95;5.80;;;;;;;16.35;80.23;99834.00;5014594;28;20076;-40
2021/07/04 05:36:45;;;;;;;13.15;5.40;;;;;;;16.38;80.17;99839.56;5016161;28;20153;-44
2021/07/04 05:39:11;;;;;;;9.85;4.63;;;;;;;16.40;80.21;99834.38;5012251;28;20056;-40
2021/07/04 05:41:38;;;;;;;12.18;5.32;;;;;;;16.43;80.34;99839.16;5011408;28;20060;-41
2021/07/04 05:44:05;;;;;;;8.63;3.97;;;;;;;16.48;80.23;99834.31;5020178;28;20096;-41
2021/07/04 05:46:34;;;;;;;15.25;4.97;;;;;;;16.51;80.30;99828.72;5003747;28;20514;-41
2021/07/04 05:49:02;;;;;;;13.68;4.72;;;;;;;16.54;80.21;99827.94;5001572;28;20411;-41
2021/07/04 05:51:30;;;;;;;8.10;4.05;;;;;;;16.57;80.22;99831.91;5011651;28;20070;-41
2021/07/04 05:53:56;;;;;;;8.30;3.90;;;;;;;16.59;80.20;99835.09;5014474;28;20077;-42
2021/07/04 05:56:23;;;;;;;8.48;4.00;;;;;;;16.60;79.98;99831.09;5021071;28;20054;-41
2021/07/04 05:58:50;;;;;;;9.43;3.47;;;;;;;16.60;80.04;99837.47;5016048;28;20054;-40
2021/07/04 06:01:18;;;;;;;4.05;2.88;;;;;;;16.64;79.82;99837.47;5011507;28;20088;-40
2021/07/04 06:03:45;;;;;;;6.60;2.83;;;;;;;16.62;79.64;99835.09;5011227;28;20065;-41
2021/07/04 06:06:11;;;;;;;6.75;2.65;;;;;;;16.65;79.39;99833.47;5011126;28;20136;-44
2021/07/04 06:08:38;;;;;;;5.15;3.17;;;;;;;16.72;79.00;99833.41;5030725;28;20060;-42
2021/07/04 06:11:05;;;;;;;3.10;2.33;;;;;;;16.78;78.92;99837.38;5013521;28;20355;-43
2021/07/04 06:13:32;;;;;;;6.63;4.30;;;;;;;16.84;78.80;99835.72;5020707;28;20511;-42
2021/07/04 06:15:59;;;;;;;5.03;2.88;;;;;;;16.90;78.88;99831.31;5012360;28;20052;-42
2021/07/04 06:18:29;;;;;;;10.15;4.05;;;;;;;16.94;78.73;99829.28;5010991;28;20061;-42
2021/07/04 06:20:56;;;;;;;7.32;2.85;;;;;;;17.01;78.52;99824.44;5011147;28;20108;-43
2021/07/04 06:23:27;;;;;;;6.40;3.20;;;;;;;17.09;78.47;99821.59;5018781;28;20045;-42
2021/07/04 06:25:53;;;;;;;6.10;2.70;;;;;;;17.13;78.22;99814.75;5021533;28;20357;-42
2021/07/04 06:28:20;;;;;;;5.90;3.15;;;;;;;17.16;78.12;99816.72;4999142;28;20084;-42
2021/07/04 06:30:48;;;;;;;4.90;2.45;;;;;;;17.22;77.66;99823.47;5010653;28;20047;-42
2021/07/04 06:33:14;;;;;;;4.72;3.08;;;;;;;17.25;77.23;99819.84;5010667;28;20053;-43
2021/07/04 06:35:41;;;;;;;5.85;3.28;;;;;;;17.28;76.70;99812.63;5001027;28;20053;-42
2021/07/04 06:38:08;;;;;;;5.15;2.90;;;;;;;17.32;76.50;99810.59;5018525;28;20108;-40
2021/07/04 06:40:35;;;;;;;6.78;3.85;;;;;;;17.36;76.01;99812.16;5028012;28;20132;-40
2021/07/04 06:43:02;;;;;;;4.45;3.10;;;;;;;17.37;75.97;99813.75;5020610;28;20092;-39
2021/07/04 06:45:29;;;;;;;4.80;3.35;;;;;;;17.41;75.76;99819.31;5011587;28;20073;-39
2021/07/04 06:47:55;;;;;;;4.50;3.63;;;;;;;17.44;75.61;99824.88;5018662;28;20590;-42
2021/07/04 06:50:25;;;;;;;4.97;3.25;;;;;;;17.47;75.44;99812.84;5021939;28;20079;-40
2021/07/04 06:52:55;;;;;;;5.25;3.15;;;;;;;17.47;74.97;99810.03;5034124;28;20064;-40
2021/07/04 06:55:22;;;;;;;5.85;3.60;;;;;;;17.51;74.76;99802.44;5025927;28;20081;-39
2021/07/04 06:57:50;;;;;;;5.95;3.42;;;;;;;17.54;74.94;99810.03;5000360;28;20145;-39
2021/07/04 07:00:17;;;;;;;10.82;3.58;;;;;;;17.58;75.10;99807.97;5021449;28;20088;-39
2021/07/04 07:02:47;;;;;;;6.32;3.80;;;;;;;17.58;75.67;99802.38;5013303;28;20049;-40
2021/07/04 07:05:15;;;;;;;6.20;3.17;;;;;;;17.62;75.64;99808.75;5020901;28;20049;-39
2021/07/04 07:07:42;;;;;;;8.40;3.28;;;;;;;17.68;75.53;99799.91;4996731;28;20137;-40
2021/07/04 07:10:11;;;;;;;4.00;2.67;;;;;;;17.77;75.40;99797.38;5021627;28;20137;-40
2021/07/04 07:12:40;;;;;;;7.80;4.20;;;;;;;17.84;75.13;99806.53;5013320;28;20049;-40
2021/07/04 07:15:10;;;;;;;6.00;3.00;;;;;;;17.91;75.01;99806.44;5013484;28;20054;-39
2021/07/04 07:17:38;;;;;;;7.00;3.58;;;;;;;17.95;74.40;99809.22;5018492;28;20112;-40
2021/07/04 07:20:07;;;;;;;7.68;4.00;;;;;;;17.99;74.41;99809.94;5013849;28;20073;-40
2021/07/04 07:22:35;;;;;;;9.23;3.90;;;;;;;17.98;74.56;99817.53;5022030;28;20050;-40
2021/07/04 07:25:04;;;;;;;7.30;3.88;;;;;;;18.05;74.79;99813.88;4987743;28;20064;-42
2021/07/04 07:27:31;;;;;;;11.23;4.18;;;;;;;18.14;75.04;99816.97;5022162;28;20061;-39
2021/07/04 07:29:58;;;;;;;8.27;3.75;;;;;;;18.32;75.69;99806.31;5030476;28;20093;-41
2021/07/04 07:32:27;;;;;;;5.60;3.60;;;;;;;18.53;75.75;99817.28;4995808;28;20089;-41
2021/07/04 07:34:54;;;;;;;6.30;3.10;;;;;;;18.74;76.00;99816.19;5013617;28;20107;-40
2021/07/04 07:37:23;;;;;;;8.27;3.83;;;;;;;18.90;76.04;99813.56;5014143;28;20034;-41
2021/07/04 07:39:51;;;;;;;16.98;5.40;;;;;;;19.06;75.47;99815.72;5017911;28;20050;-40
2021/07/04 07:42:18;;;;;;;9.18;3.78;;;;;;;19.15;74.44;99813.16;5012940;28;20077;-40
2021/07/04 07:44:45;;;;;;;9.40;4.32;;;;;;;19.18;73.50;99812.31;5020738;28;20053;-39
2021/07/04 07:47:12;;;;;;;8.23;4.30;;;;;;;19.14;72.68;99805.97;5013519;28;20054;-40
2021/07/04 07:49:39;;;;;;;9.85;4.72;;;;;;;19.13;72.50;99807.19;5025567;28;20050;-40
2021/07/04 07:52:06;;;;;;;11.80;3.88;;;;;;;19.17;72.53;99810.72;5015165;28;20089;-41
2021/07/04 07:54:34;;;;;;;7.03;3.85;;;;;;;19.21;71.83;99803.84;5015703;28;20125;-44
2021/07/04 07:57:04;;;;;;;9.65;3.85;;;;;;;19.25;71.74;99800.94;5019459;28;20069;-42
2021/07/04 07:59:32;;;;;;;6.72;4.13;;;;;;;19.33;71.61;99805.22;5012552;28;20510;-42
2021/07/04 08:01:59;;;;;;;10.93;4.40;;;;;;;19.44;71.44;99801.06;5029523;28;20103;-42
2021/07/04 08:04:27;;;;;;;7.93;3.60;;;;;;;19.57;71.01;99806.84;5013141;28;20136;-41
2021/07/04 08:06:57;;;;;;;8.02;3.83;;;;;;;19.66;70.55;99803.47;5021339;28;20726;-41
2021/07/04 08:09:25;;;;;;;6.28;2.95;;;;;;;19.73;69.90;99804.13;5015620;28;20054;-41
2021/07/04 08:11:52;;;;;;;7.80;3.20;;;;;;;19.82;69.67;99801.56;5013238;28;20058;-42
2021/07/04 08:14:20;;;;;;;6.88;3.05;;;;;;;19.87;69.19;99798.25;5012478;28;20587;-41
2021/07/04 08:16:48;;;;;;;6.57;3.22;;;;;;;19.88;68.96;99796.25;5012736;28;20053;-42
2021/07/04 08:19:15;;;;;;;6.00;3.10;;;;;;;19.87;68.84;99786.22;5012864;28;20058;-44
2021/07/04 08:21:42;;;;;;;7.50;4.55;;;;;;;19.78;68.45;99791.59;5011883;28;20092;-42
2021/07/04 08:24:10;;;;;;;9.70;3.83;;;;;;;19.76;68.60;99792.03;5011488;28;20111;-42
2021/07/04 08:26:37;;;;;;;8.13;3.60;;;;;;;19.80;68.95;99795.56;5023871;28;20063;-43
2021/07/04 08:29:04;;;;;;;7.15;3.92;;;;;;;19.80;68.55;99798.38;5004990;28;20144;-43
2021/07/04 08:31:31;;;;;;;12.10;3.45;;;;;;;19.81;68.10;99799.97;5010033;28;20077;-42
2021/07/04 08:33:58;;;;;;;7.57;4.15;;;;;;;19.79;68.06;99802.41;5012289;28;20580;-46
2021/07/04 08:36:25;;;;;;;9.55;3.15;;;;;;;19.73;68.37;99801.31;5009112;28;20578;-44
2021/07/04 08:38:52;;;;;;;6.15;3.10;;;;;;;19.63;68.23;99799.50;5013280;28;20139;-41
2021/07/04 08:41:19;;;;;;;7.82;4.05;;;;;;;19.58;68.21;99797.19;5010211;28;20049;-42
2021/07/04 08:43:46;;;;;;;7.32;3.05;;;;;;;19.67;67.98;99803.03;5013073;28;20085;-41
2021/07/04 08:46:13;;;;;;;29.48;4.28;;;;;;;19.72;67.48;99796.16;5020533;28;20084;-41
2021/07/04 08:48:41;;;;;;;8.52;3.03;;;;;;;19.75;67.49;99798.88;5007473;28;20049;-42
2021/07/04 08:51:09;;;;;;;7.22;4.00;;;;;;;20.00;67.49;99789.97;5002510;28;20136;-42
2021/07/04 08:53:38;;;;;;;6.57;3.80;;;;;;;20.02;67.15;99791.13;5005821;28;20100;-41
2021/07/04 08:56:06;;;;;;;8.45;3.10;;;;;;;19.93;66.86;99782.50;5010179;28;20414;-41
2021/07/04 08:58:35;;;;;;;4.97;3.05;;;;;;;19.86;66.97;99785.41;5002415;28;20059;-47
2021/07/04 09:01:25;;;;;;;21.60;4.15;;;;;;;20.56;66.88;99782.38;5011665;28;20160;-43
2021/07/04 09:03:56;;;;;;;6.35;2.08;;;;;;;21.58;65.88;99777.03;5018108;28;20053;-43
2021/07/04 09:06:42;;;;;;;4.43;2.42;;;;;;;22.47;61.77;99783.00;5014095;28;20062;-44
2021/07/04 09:09:31;;;;;;;3.10;2.17;;;;;;;22.72;61.53;99783.06;5013837;28;20491;-41
2021/07/04 09:12:08;;;;;;;6.53;2.55;;;;;;;22.50;61.22;99776.47;5009220;28;20046;-45
2021/07/04 09:14:45;;;;;;;5.93;3.22;;;;;;;22.23;60.15;99780.50;5004646;28;20498;-42
2021/07/04 09:17:35;;;;;;;6.22;2.63;;;;;;;21.89;60.76;99783.09;5004974;28;20116;-41
2021/07/04 09:20:07;;;;;;;4.50;2.17;;;;;;;21.67;60.97;99780.03;5009808;28;20058;-41
2021/07/04 09:22:39;;;;;;;5.85;2.35;;;;;;;21.49;60.89;99773.28;5010426;28;20050;-41
2021/07/04 09:25:16;;;;;;;5.88;2.65;;;;;;;21.36;61.31;99772.44;5006944;28;20062;-40
2021/07/04 09:28:11;;;;;;;6.57;2.22;;;;;;;21.26;61.36;99774.28;5007167;28;20168;-45
2021/07/04 09:30:45;;;;;;;5.28;2.60;;;;;;;21.03;61.35;99772.41;5017467;28;20471;-43
2021/07/04 09:33:14;;;;;;;8.57;3.30;;;;;;;20.83;61.81;99768.91;5010560;28;20060;-41
2021/07/04 09:35:53;;;;;;;11.10;3.97;;;;;;;20.51;62.22;99764.00;5009631;28;20383;-42
2021/07/04 09:38:21;;;;;;;10.65;4.28;;;;;;;20.37;62.99;99772.75;5008347;28;20053;-42
2021/07/04 09:40:49;;;;;;;12.98;4.28;;;;;;;20.17;63.03;99765.53;5010369;28;20444;-41
2021/07/04 09:43:18;;;;;;;9.55;3.85;;;;;;;20.01;63.50;99766.28;5013700;28;20385;-41
2021/07/04 09:45:55;;;;;;;7.20;3.72;;;;;;;20.07;64.07;99763.75;5008876;28;20084;-42
2021/07/04 09:48:37;;;;;;;13.23;4.30;;;;;;;20.17;64.60;99765.53;5010104;28;20100;-42
2021/07/04 09:51:11;;;;;;;8.07;4.05;;;;;;;20.54;64.16;99762.34;5009262;28;20046;-42
2021/07/04 09:53:44;;;;;;;8.18;4.30;;;;;;;20.74;64.02;99768.69;5007826;28;20046;-42
2021/07/04 09:56:33;;;;;;;12.00;4.18;;;;;;;20.60;63.93;99761.38;5016543;28;20128;-41
2021/07/04 09:59:05;;;;;;;17.13;5.13;;;;;;;20.42;64.80;99755.38;5009457;28;20077;-42
2021/07/04 10:01:43;;;;;;;19.48;5.43;;;;;;;20.32;64.99;99761.22;5017008;28;20053;-41
2021/07/04 10:04:28;;;;;;;11.88;4.70;;;;;;;20.21;64.78;99750.19;5015045;28;20034;-42
2021/07/04 10:06:55;;;;;;;11.23;4.60;;;;;;;20.05;65.14;99753.72;5011558;28;20073;-42
2021/07/04 10:09:26;;;;;;;14.30;5.40;;;;;;;19.98;65.26;99751.06;5009061;28;20053;-42
2021/07/04 10:11:56;;;;;;;12.23;4.82;;;;;;;19.93;65.43;99745.97;5003626;28;20148;-64
2021/07/04 10:14:26;;;;;;;11.35;5.03;;;;;;;19.95;65.42;99749.13;5013495;28;20052;-54
2021/07/04 10:16:54;;;;;;;12.75;4.75;;;;;;;19.99;65.95;99749.84;5008659;28;20548;-59
2021/07/04 10:19:23;;;;;;;14.00;4.57;;;;;;;20.01;65.89;99747.38;5007166;28;20109;-58
2021/07/04 10:21:59;;;;;;;10.18;4.53;;;;;;;20.03;65.89;99744.16;5014151;28;20435;-42
2021/07/04 10:24:27;;;;;;;14.05;4.30;;;;;;;20.11;65.84;99756.81;5018521;28;20058;-41
2021/07/04 10:27:00;;;;;;;12.15;4.25;;;;;;;20.54;65.70;99745.47;5010152;28;20046;-43
2021/07/04 10:29:30;;;;;;;11.30;4.93;;;;;;;21.13;64.98;99748.88;5017607;28;20137;-42
2021/07/04 10:32:12;;;;;;;8.15;3.97;;;;;;;21.66;63.75;99750.28;5013193;28;20292;-41
2021/07/04 10:34:48;;;;;;;10.77;4.90;;;;;;;21.98;62.83;99746.56;5002476;28;20054;-43
2021/07/04 10:37:33;;;;;;;12.65;4.53;;;;;;;22.15;62.77;99739.66;5019897;28;20088;-41
2021/07/04 10:40:20;;;;;;;15.02;5.85;;;;;;;22.05;61.10;99746.41;5016275;28;20054;-40
2021/07/04 10:42:47;;;;;;;15.45;5.45;;;;;;;21.85;62.68;99742.91;5016090;28;20447;-41
2021/07/04 10:45:37;;;;;;;12.80;4.43;;;;;;;21.67;61.50;99742.63;5000260;28;20054;-41
2021/07/04 10:48:23;;;;;;;15.40;6.65;;;;;;;21.36;62.13;99749.91;5026191;28;20053;-44
2021/07/04 10:51:15;;;;;;;9.93;4.72;;;;;;;21.15;62.21;99746.38;5020661;28;20565;-40
2021/07/04 10:53:46;;;;;;;;;;;;;;;21.06;63.35;99759.47;5013642;28;20099;-42
2021/07/04 10:56:35;;;;;;;11.50;4.97;;;;;;;21.21;63.50;99747.44;5022991;28;19925;-39
2021/07/04 10:59:06;;;;;;;13.50;5.15;;;;;;;21.37;63.65;99745.84;5008443;28;20081;-39
2021/07/04 11:01:57;;;;;;;13.98;5.90;;;;;;;21.47;63.19;99747.59;5023844;28;20080;-41
2021/07/04 11:04:27;;;;;;;14.18;6.65;;;;;;;21.46;63.11;99744.00;5010859;28;20058;-47
2021/07/04 11:06:56;;;;;;;15.20;6.70;;;;;;;21.39;63.37;99743.41;5013370;28;20045;-40
2021/07/04 11:09:42;;;;;;;12.85;5.25;;;;;;;21.25;63.32;99738.91;5011882;28;20065;-40
2021/07/04 11:12:29;;;;;;;17.92;7.43;;;;;;;21.19;63.08;99735.84;5014240;28;20093;-40
2021/07/04 11:15:11;;;;;;;17.40;5.95;;;;;;;21.21;63.19;99732.56;5011277;28;20141;-40
2021/07/04 11:17:56;;;;;;;15.25;5.45;;;;;;;21.17;62.92;99737.53;4998247;28;20638;-40
2021/07/04 11:20:56;;;;;;;14.13;5.70;;;;;;;21.05;62.62;99730.53;5025178;28;20049;-45
2021/07/04 11:23:26;;;;;;;11.85;5.53;;;;;;;20.84;63.66;99731.06;5010046;28;20073;-40
2021/07/04 11:26:10;;;;;;;15.85;5.70;;;;;;;20.75;63.85;99727.28;4996412;28;20137;-40
2021/07/04 12:08:26;;;;;;;10.38;5.82;;;;;;;21.34;63.99;99696.84;5036891;22;20055;-43
2021/07/04 12:10:53;;;;;;;15.95;6.30;;;;;;;21.50;63.76;99693.22;5026773;28;20318;-45
2021/07/04 12:13:21;;;;;;;10.35;5.40;;;;;;;21.58;63.62;99692.53;5028488;28;20175;-49
2021/07/04 12:15:49;;;;;;;14.88;5.15;;;;;;;21.54;63.40;99688.25;5023095;28;20142;-44
2021/07/04 12:18:18;;;;;;;12.73;4.60;;;;;;;21.65;63.22;99683.13;5026570;28;20064;-52
2021/07/04 12:20:53;;;;;;;13.23;4.63;;;;;;;21.70;62.89;99685.38;5013210;28;21395;-49
2021/07/04 12:23:21;;;;;;;24.02;6.03;;;;;;;21.84;62.61;99682.16;5027666;28;20064;-39